createdAt,value
2022-11-22T00:02:05.751Z,1.99
2022-11-22T00:06:08.719Z,1.94
2022-11-22T00:10:14.464Z,1.91
2022-11-22T00:14:17.417Z,1.88
2022-11-22T00:18:20.341Z,1.88
2022-11-22T00:22:23.339Z,1.89
2022-11-22T00:26:27.922Z,1.85
2022-11-22T00:30:30.822Z,1.82
2022-11-22T00:34:33.938Z,1.82
2022-11-22T00:38:37.044Z,1.82
2022-11-22T00:42:41.326Z,1.74
2022-11-22T00:46:44.249Z,1.60
2022-11-22T00:50:49.749Z,1.53
2022-11-22T00:54:55.037Z,1.46
2022-11-22T00:58:59.705Z,1.41
2022-11-22T01:03:02.607Z,1.39
2022-11-22T01:07:05.850Z,1.33
2022-11-22T01:11:08.988Z,1.26
2022-11-22T01:15:13.367Z,1.20
2022-11-22T01:19:16.631Z,1.13
2022-11-22T01:23:19.552Z,1.09
2022-11-22T01:27:22.505Z,1.08
2022-11-22T01:31:26.881Z,1.10
2022-11-22T01:35:29.988Z,1.07
2022-11-22T01:39:33.029Z,1.10
2022-11-22T01:43:36.149Z,1.14
2022-11-22T01:47:40.578Z,1.17
2022-11-22T01:51:47.656Z,1.17
2022-11-22T01:55:52.538Z,1.17
2022-11-22T02:00:00.456Z,1.21
2022-11-22T02:04:07.489Z,1.25
2022-11-22T02:08:14.564Z,1.24
2022-11-22T02:12:20.443Z,1.29
2022-11-22T02:16:23.755Z,1.30
2022-11-22T02:20:28.074Z,1.36
2022-11-22T02:24:40.259Z,1.41
2022-11-22T02:28:44.875Z,1.44
2022-11-22T02:32:47.798Z,1.46
2022-11-22T02:36:54.475Z,1.50
2022-11-22T02:40:59.626Z,1.52
2022-11-22T02:45:03.895Z,1.57
2022-11-22T02:49:06.791Z,1.57
2022-11-22T02:53:11.060Z,1.59
2022-11-22T02:57:14.306Z,1.61
2022-11-22T03:01:19.246Z,1.70
2022-11-22T03:05:22.345Z,1.77
2022-11-22T03:09:27.779Z,1.84
2022-11-22T03:13:30.886Z,1.92
2022-11-22T03:17:35.208Z,2.01
2022-11-22T03:21:38.457Z,2.07
2022-11-22T03:25:41.870Z,2.15
2022-11-22T03:29:44.965Z,2.19
2022-11-22T03:33:49.583Z,2.25
2022-11-22T03:37:52.551Z,2.30
2022-11-22T03:41:56.405Z,2.35
2022-11-22T03:45:59.521Z,2.39
2022-11-22T03:50:04.546Z,2.43
2022-11-22T03:54:07.556Z,2.47
2022-11-22T03:58:10.476Z,2.52
2022-11-22T04:02:13.695Z,2.58
2022-11-22T04:06:19.322Z,2.60
2022-11-22T04:10:22.608Z,2.65
2022-11-22T04:14:42.879Z,2.68
2022-11-22T04:18:45.903Z,2.72
2022-11-22T04:22:58.071Z,2.77
2022-11-22T04:27:00.953Z,2.82
2022-11-22T04:31:21.472Z,2.85
2022-11-22T04:35:24.693Z,2.89
2022-11-22T04:39:30.114Z,2.93
2022-11-22T04:43:49.722Z,2.97
2022-11-22T04:48:01.778Z,3.01
2022-11-22T04:52:23.639Z,3.04
2022-11-22T04:56:27.961Z,3.08
2022-11-22T05:00:31.680Z,3.11
2022-11-22T05:04:35.224Z,3.13
2022-11-22T05:08:38.399Z,3.15
2022-11-22T05:12:43.037Z,3.17
2022-11-22T05:16:45.953Z,3.18
2022-11-22T05:20:48.841Z,3.19
2022-11-22T05:24:51.761Z,3.22
2022-11-22T05:28:57.989Z,3.25
2022-11-22T05:33:01.105Z,3.26
2022-11-22T05:37:04.044Z,3.30
2022-11-22T05:41:08.938Z,3.30
2022-11-22T05:45:13.281Z,3.34
2022-11-22T05:49:16.213Z,3.37
2022-11-22T05:53:19.120Z,3.40
2022-11-22T05:57:22.284Z,3.43
2022-11-22T06:01:26.806Z,3.39
2022-11-22T06:05:30.562Z,3.42
2022-11-22T06:09:34.263Z,3.46
2022-11-22T06:13:37.838Z,3.47
2022-11-22T06:17:42.372Z,3.47
2022-11-22T06:21:45.623Z,3.48
2022-11-22T06:25:48.732Z,3.45
2022-11-22T06:29:51.665Z,3.45
2022-11-22T06:33:57.238Z,3.48
2022-11-22T06:38:00.975Z,3.49
2022-11-22T06:42:04.105Z,3.52
2022-11-22T06:46:09.377Z,3.54
2022-11-22T06:50:17.457Z,3.55
2022-11-22T06:54:24.408Z,3.54
2022-11-22T06:58:27.423Z,3.54
2022-11-22T07:02:30.546Z,3.57
2022-11-22T07:06:37.153Z,3.58
2022-11-22T07:10:40.319Z,3.58
2022-11-22T07:14:43.488Z,3.57
2022-11-22T07:18:46.698Z,3.47
2022-11-22T07:22:51.309Z,3.41
2022-11-22T07:26:54.455Z,3.32
2022-11-22T07:31:01.008Z,3.25
2022-11-22T07:35:04.209Z,3.15
2022-11-22T07:39:08.717Z,3.09
2022-11-22T07:43:12.024Z,3.06
2022-11-22T07:47:19.832Z,3.00
2022-11-22T07:51:25.975Z,2.96
2022-11-22T07:55:31.388Z,2.93
2022-11-22T07:59:34.544Z,2.88
2022-11-22T08:03:38.197Z,2.89
2022-11-22T08:07:41.257Z,2.85
2022-11-22T08:11:45.591Z,2.85
2022-11-22T08:15:49.729Z,2.89
2022-11-22T08:19:53.527Z,2.90
2022-11-22T08:23:59.266Z,2.90
2022-11-22T08:28:03.557Z,2.95
2022-11-22T08:32:06.561Z,2.94
2022-11-22T08:36:09.938Z,2.96
2022-11-22T08:40:13.538Z,3.00
2022-11-22T08:44:17.899Z,3.05
2022-11-22T08:48:22.426Z,3.06
2022-11-22T08:52:25.711Z,3.08
2022-11-22T08:56:28.776Z,3.07
2022-11-22T09:00:33.741Z,3.13
2022-11-22T09:04:37.008Z,3.16
2022-11-22T09:08:43.023Z,3.20
2022-11-22T09:12:47.713Z,3.27
2022-11-22T09:16:52.012Z,3.34
2022-11-22T09:20:59.076Z,3.34
2022-11-22T09:25:02.389Z,3.35
2022-11-22T09:29:05.313Z,3.38
2022-11-22T09:33:11.265Z,3.36
2022-11-22T09:37:17.241Z,3.41
2022-11-22T09:41:42.314Z,3.45
2022-11-22T09:46:04.216Z,3.46
2022-11-22T09:50:20.858Z,3.50
2022-11-22T09:54:28.260Z,3.51
2022-11-22T09:58:35.136Z,3.53
2022-11-22T10:02:59.257Z,3.57
2022-11-22T10:07:13.574Z,3.59
2022-11-22T10:11:25.882Z,3.62
2022-11-22T10:15:36.989Z,3.61
2022-11-22T10:19:45.389Z,3.61
2022-11-22T10:23:49.703Z,3.60
2022-11-22T10:28:00.604Z,3.68
2022-11-22T10:32:11.902Z,3.72
2022-11-22T10:36:29.622Z,3.78
2022-11-22T10:40:40.838Z,3.78
2022-11-22T10:44:52.413Z,3.79
2022-11-22T10:49:03.751Z,3.82
2022-11-22T10:53:18.640Z,3.89
2022-11-22T10:57:33.850Z,3.92
2022-11-22T11:01:43.311Z,3.97
2022-11-22T11:06:15.684Z,4.00
2022-11-22T11:10:29.161Z,4.02
2022-11-22T11:14:41.530Z,4.08
2022-11-22T11:18:49.290Z,4.10
2022-11-22T11:23:13.857Z,4.13
2022-11-22T11:27:18.048Z,4.18
2022-11-22T11:31:22.395Z,4.24
2022-11-22T11:35:29.344Z,4.30
2022-11-22T11:39:33.573Z,4.36
2022-11-22T11:43:43.937Z,4.39
2022-11-22T11:47:48.260Z,4.41
2022-11-22T11:51:56.166Z,4.42
2022-11-22T11:56:20.231Z,4.43
2022-11-22T12:00:28.080Z,4.46
2022-11-22T12:04:36.002Z,4.49
2022-11-22T12:08:38.926Z,4.50
2022-11-22T12:12:47.737Z,4.56
2022-11-22T12:16:55.412Z,4.51
2022-11-22T12:21:12.913Z,4.52
2022-11-22T12:25:37.639Z,4.55
2022-11-22T12:29:43.713Z,4.63
2022-11-22T12:33:51.357Z,4.64
2022-11-22T12:37:58.135Z,4.64
2022-11-22T12:42:06.659Z,4.66
2022-11-22T12:46:14.684Z,4.67
2022-11-22T12:50:31.685Z,4.74
2022-11-22T12:54:39.716Z,4.82
2022-11-22T12:58:51.226Z,4.87
2022-11-22T13:03:02.585Z,4.92
2022-11-22T13:07:14.520Z,4.92
2022-11-22T13:11:24.765Z,4.96
2022-11-22T13:15:30.648Z,4.89
2022-11-22T13:19:38.187Z,4.87
2022-11-22T13:23:55.674Z,4.94
2022-11-22T13:28:01.911Z,4.98
2022-11-22T13:32:09.030Z,4.95
2022-11-22T13:36:36.192Z,4.92
2022-11-22T13:40:43.036Z,4.92
2022-11-22T13:45:20.337Z,4.91
2022-11-22T13:49:38.215Z,4.91
2022-11-22T13:53:45.018Z,4.90
2022-11-22T13:57:48.125Z,4.89
2022-11-22T14:02:22.493Z,5.00
2022-11-22T14:06:30.653Z,5.18
2022-11-22T14:10:36.565Z,5.25
2022-11-22T14:14:47.644Z,5.22
2022-11-22T14:19:07.551Z,5.19
2022-11-22T14:23:22.118Z,5.18
2022-11-22T14:27:42.820Z,5.09
2022-11-22T14:32:03.849Z,5.04
2022-11-22T14:36:18.246Z,5.00
2022-11-22T14:40:37.193Z,4.97
2022-11-22T14:44:41.105Z,4.97
2022-11-22T14:48:50.924Z,4.98
2022-11-22T14:52:58.372Z,5.00
2022-11-22T14:57:06.571Z,4.98
2022-11-22T15:01:56.654Z,4.97
2022-11-22T15:09:14.560Z,4.98
2022-11-22T15:11:29.115Z,4.93
2022-11-22T16:00:25.416Z,4.45
2022-11-22T16:04:31.858Z,4.44
2022-11-22T16:08:36.593Z,4.43
2022-11-22T16:12:40.010Z,4.40
2022-11-22T16:16:42.950Z,4.38
2022-11-22T16:21:02.018Z,4.41
2022-11-22T16:25:23.765Z,4.39
2022-11-22T16:29:31.851Z,4.36
2022-11-22T16:33:35.612Z,4.36
2022-11-22T16:37:47.863Z,4.35
2022-11-22T16:41:51.514Z,4.35
2022-11-22T16:45:54.930Z,4.43
2022-11-22T16:49:58.308Z,4.49
2022-11-22T16:54:12.204Z,4.51
2022-11-22T16:58:17.852Z,4.63
2022-11-22T17:02:21.075Z,4.66
2022-11-22T17:06:28.507Z,4.67
2022-11-22T17:10:33.160Z,4.70
2022-11-22T17:14:36.099Z,4.72
2022-11-22T17:18:42.040Z,4.75
2022-11-22T17:22:45.634Z,4.78
2022-11-22T17:26:49.939Z,4.84
2022-11-22T17:30:53.150Z,4.88
2022-11-22T17:34:56.686Z,4.91
2022-11-22T17:39:01.727Z,4.93
2022-11-22T17:43:06.033Z,4.94
2022-11-22T17:47:09.157Z,4.97
2022-11-22T17:51:13.469Z,4.98
2022-11-22T17:55:16.535Z,5.00
2022-11-22T17:59:20.917Z,4.99
2022-11-22T18:03:23.908Z,5.01
2022-11-22T18:07:28.636Z,5.02
2022-11-22T18:11:31.814Z,5.02
2022-11-22T18:15:36.172Z,5.02
2022-11-22T18:19:39.562Z,5.03
2022-11-22T18:23:42.442Z,5.05
2022-11-22T18:27:45.496Z,5.05
2022-11-22T18:31:52.700Z,5.06
2022-11-22T18:36:54.075Z,5.06
2022-11-22T18:40:47.992Z,5.06
2022-11-22T18:44:51.073Z,5.06
2022-11-22T18:48:55.273Z,5.04
2022-11-22T18:52:59.318Z,4.99
2022-11-22T18:57:02.856Z,4.86
2022-11-22T19:01:11.182Z,4.83
2022-11-22T19:05:15.947Z,4.75
2022-11-22T19:09:19.493Z,4.63
2022-11-22T19:13:22.768Z,4.58
2022-11-22T19:17:26.007Z,4.62
2022-11-22T19:21:30.949Z,4.56
2022-11-22T19:25:35.954Z,4.50
2022-11-22T19:29:39.335Z,4.48
2022-11-22T19:33:42.941Z,4.50
2022-11-22T19:37:47.656Z,4.45
2022-11-22T19:41:54.362Z,4.41
2022-11-22T19:46:02.022Z,4.34
2022-11-22T19:50:06.319Z,4.31
2022-11-22T19:54:11.318Z,4.34
2022-11-22T19:58:14.244Z,4.28
2022-11-22T20:02:18.667Z,4.26
2022-11-22T20:06:22.067Z,4.22
2022-11-22T20:10:27.318Z,4.21
2022-11-22T20:14:30.682Z,4.15
2022-11-22T20:18:33.980Z,4.16
2022-11-22T20:22:39.734Z,4.16
2022-11-22T20:26:44.450Z,4.14
2022-11-22T20:30:47.389Z,4.14
2022-11-22T20:34:50.588Z,4.12
2022-11-22T20:38:54.519Z,4.10
2022-11-22T20:42:59.234Z,4.11
2022-11-22T20:47:02.569Z,4.10
2022-11-22T20:51:08.650Z,4.11
2022-11-22T20:55:11.878Z,4.15
2022-11-22T20:59:16.261Z,4.21
2022-11-22T21:03:19.360Z,4.26
2022-11-22T21:07:22.476Z,4.31
2022-11-22T21:11:27.388Z,4.28
2022-11-22T21:15:31.758Z,4.31
2022-11-22T21:19:34.629Z,4.34
2022-11-22T21:23:38.291Z,4.33
2022-11-22T21:27:41.250Z,4.35
2022-11-22T21:31:45.512Z,4.30
2022-11-22T21:35:48.615Z,4.29
2022-11-22T21:39:51.512Z,4.27
2022-11-22T21:43:55.946Z,4.28
2022-11-22T21:48:00.197Z,4.29
2022-11-22T21:52:03.131Z,4.29
2022-11-22T21:56:06.611Z,4.29
2022-11-22T22:00:11.397Z,4.28
2022-11-22T22:04:16.498Z,4.29
2022-11-22T22:08:20.273Z,4.29
2022-11-22T22:12:23.245Z,4.28
2022-11-22T22:16:26.558Z,4.29
2022-11-22T22:20:31.127Z,4.25
2022-11-22T22:24:35.054Z,4.23
2022-11-22T22:28:39.408Z,4.20
2022-11-22T22:32:43.030Z,4.18
2022-11-22T22:36:47.582Z,4.06
2022-11-22T22:40:53.909Z,4.00
2022-11-22T22:44:56.866Z,4.02
2022-11-22T22:49:00.204Z,3.94
2022-11-22T22:53:04.645Z,3.86
2022-11-22T22:57:07.689Z,3.81
2022-11-22T23:01:14.162Z,3.80
2022-11-22T23:05:17.538Z,3.81
2022-11-22T23:09:22.129Z,3.79
2022-11-22T23:13:25.621Z,3.80
2022-11-22T23:17:28.623Z,3.79
2022-11-22T23:21:31.622Z,3.78
2022-11-22T23:25:36.008Z,3.78
2022-11-22T23:29:39.169Z,3.78
2022-11-22T23:33:43.120Z,3.80
2022-11-22T23:37:46.087Z,3.79
2022-11-22T23:41:50.499Z,3.84
2022-11-22T23:45:53.720Z,3.86
2022-11-22T23:49:56.665Z,3.91
2022-11-22T23:54:01.760Z,3.94
2022-11-22T23:58:06.140Z,3.92
